Time;durP1;ratioP1;P1;durP2;ratioP2;P2;SDS_P1;SDS_P2;PMS_P1;PMS_P2;Temp;Humidity;BMP_temperature;BMP_pressure;BME280_temperature;BME280_humidity;BME280_pressure;Samples;Min_cycle;Max_cycle;Signal;HPM_P1;HPM_P2
2021/07/27 00:00:33;;;;;;;10.77;5.88;;;;;;;18.37;79.62;100941.75;5014663;28;20038;-68
2021/07/27 00:03:00;;;;;;;9.40;4.75;;;;;;;18.35;79.64;100942.97;5003766;28;20631;-69
2021/07/27 00:05:26;;;;;;;10.23;5.55;;;;;;;18.32;79.51;100943.38;5006280;28;20061;-69
2021/07/27 00:07:52;;;;;;;9.80;5.38;;;;;;;18.34;79.50;100944.78;5008156;28;20476;-68
2021/07/27 00:10:17;;;;;;;7.45;4.57;;;;;;;18.24;79.83;100944.41;5008162;28;20029;-68
2021/07/27 00:12:43;;;;;;;13.60;5.95;;;;;;;18.21;79.92;100942.16;4990685;28;20518;-69
2021/07/27 00:15:09;;;;;;;8.68;5.50;;;;;;;18.19;79.79;100944.19;4992661;28;20033;-68
2021/07/27 00:17:34;;;;;;;9.90;5.38;;;;;;;18.14;80.12;100939.56;5008901;28;20025;-69
2021/07/27 00:20:00;;;;;;;10.05;5.93;;;;;;;18.14;79.63;100942.19;4990878;28;20049;-68
2021/07/27 00:22:25;;;;;;;8.70;4.43;;;;;;;18.09;80.10;100944.59;5006703;28;20045;-69
2021/07/27 00:24:52;;;;;;;9.77;5.20;;;;;;;18.05;80.25;100946.81;5007847;28;20421;-68
2021/07/27 00:27:18;;;;;;;10.40;5.70;;;;;;;18.08;80.12;100942.97;4990853;28;20888;-69
2021/07/27 00:29:44;;;;;;;11.70;6.45;;;;;;;18.06;80.25;100939.75;5008070;28;20133;-68
2021/07/27 00:32:09;;;;;;;11.73;5.60;;;;;;;18.04;80.08;100939.94;5007528;28;20030;-69
2021/07/27 00:34:35;;;;;;;13.77;6.90;;;;;;;18.00;80.34;100943.97;5007292;28;20050;-69
2021/07/27 00:37:00;;;;;;;11.40;7.25;;;;;;;17.97;80.32;100941.78;5007653;28;20036;-69
2021/07/27 00:39:26;;;;;;;13.90;6.38;;;;;;;17.99;80.30;100947.63;5008269;28;20443;-68
2021/07/27 00:41:52;;;;;;;12.70;6.13;;;;;;;17.93;80.55;100950.25;5008596;28;20558;-69
2021/07/27 00:44:17;;;;;;;20.85;6.13;;;;;;;17.90;80.79;100959.31;5003478;28;20038;-69
2021/07/27 00:46:43;;;;;;;14.10;7.25;;;;;;;17.84;81.06;100954.84;5007827;28;20044;-68
2021/07/27 00:49:08;;;;;;;12.93;5.75;;;;;;;17.80;81.11;100949.19;4991406;28;20056;-69
2021/07/27 00:51:34;;;;;;;9.52;5.68;;;;;;;17.80;81.22;100954.44;5007994;28;20034;-68
2021/07/27 00:54:00;;;;;;;11.68;6.22;;;;;;;17.80;81.19;100954.44;5006934;28;20054;-69
2021/07/27 00:56:26;;;;;;;11.75;6.00;;;;;;;17.83;80.88;100959.28;5007466;28;20025;-69
2021/07/27 00:58:52;;;;;;;19.92;6.75;;;;;;;17.82;80.89;100947.19;4989816;28;20064;-69
2021/07/27 01:01:19;;;;;;;13.35;8.00;;;;;;;17.80;80.44;100951.81;5007149;28;20113;-69
2021/07/27 01:03:44;;;;;;;11.98;6.80;;;;;;;17.78;80.91;100950.38;5005112;28;20026;-68
2021/07/27 01:06:10;;;;;;;12.90;7.80;;;;;;;17.78;80.94;100947.75;4996157;28;20022;-68
2021/07/27 01:08:37;;;;;;;11.65;6.45;;;;;;;17.74;81.11;100943.94;5005903;28;20037;-68
2021/07/27 01:11:03;;;;;;;12.40;6.78;;;;;;;17.75;80.95;100945.56;4989300;28;20895;-69
2021/07/27 01:13:29;;;;;;;14.45;6.68;;;;;;;17.76;80.82;100950.59;5005696;28;20045;-69
2021/07/27 01:15:59;;;;;;;11.75;6.53;;;;;;;17.77;80.64;100946.97;4988825;28;20412;-69
2021/07/27 01:18:28;;;;;;;13.25;6.57;;;;;;;17.78;80.56;100947.75;5007203;28;20026;-68
2021/07/27 01:40:02;;;;;;;13.20;6.75;;;;;;;17.65;80.13;100931.03;5007026;28;20034;-69
2021/07/27 01:42:34;;;;;;;14.13;6.60;;;;;;;17.63;79.95;100922.56;5005433;28;20523;-69
2021/07/27 01:45:11;;;;;;;12.00;6.47;;;;;;;17.61;79.94;100935.06;5006154;28;20455;-69
2021/07/27 01:47:37;;;;;;;16.17;8.65;;;;;;;17.56;79.94;100932.22;5006602;28;20031;-69
2021/07/27 01:50:03;;;;;;;13.55;6.95;;;;;;;17.53;80.24;100935.22;4989003;28;20072;-69
2021/07/27 01:52:28;;;;;;;11.48;6.55;;;;;;;17.49;80.49;100944.50;4999410;28;20061;-69
2021/07/27 01:54:55;;;;;;;14.32;7.30;;;;;;;17.47;80.75;100939.44;4989671;28;20105;-69
2021/07/27 01:57:23;;;;;;;16.50;8.18;;;;;;;17.47;80.79;100931.56;5009315;28;20622;-69
2021/07/27 01:59:54;;;;;;;20.45;9.88;;;;;;;17.45;80.93;100941.47;5009451;28;20041;-69
2021/07/27 02:02:20;;;;;;;16.65;9.45;;;;;;;17.41;81.30;100936.81;4988454;28;20150;-69
2021/07/27 02:04:45;;;;;;;21.40;8.85;;;;;;;17.41;81.16;100940.25;5009064;28;20017;-69
2021/07/27 02:07:11;;;;;;;15.38;8.60;;;;;;;17.40;81.26;100940.44;5011464;28;20042;-69
2021/07/27 02:09:40;;;;;;;18.35;10.35;;;;;;;17.36;81.34;100937.41;5004858;28;20041;-69
2021/07/27 02:12:11;;;;;;;22.40;9.70;;;;;;;17.33;81.28;100932.56;4994263;28;20125;-69
2021/07/27 02:17:21;;;;;;;16.33;9.32;;;;;;;17.28;81.74;100925.28;5010338;28;20030;-69
2021/07/27 02:19:46;;;;;;;13.20;8.77;;;;;;;17.30;81.67;100922.47;5010586;28;20018;-69
2021/07/27 02:22:13;;;;;;;16.98;9.85;;;;;;;17.31;81.47;100929.34;5009580;28;20037;-69
2021/07/27 02:24:39;;;;;;;16.58;9.60;;;;;;;17.28;81.41;100929.72;5008132;28;20037;-69
2021/07/27 02:27:05;;;;;;;21.02;12.18;;;;;;;17.30;81.33;100930.31;5011815;28;20030;-69
2021/07/27 02:29:30;;;;;;;16.10;9.48;;;;;;;17.24;81.69;100937.16;5015084;28;20088;-69
2021/07/27 02:31:56;;;;;;;21.05;12.48;;;;;;;17.21;81.74;100934.94;5015646;28;20037;-69
2021/07/27 02:34:21;;;;;;;23.20;11.65;;;;;;;17.23;81.87;100939.97;5013672;28;20503;-69
2021/07/27 02:36:47;;;;;;;18.60;11.20;;;;;;;17.24;81.70;100931.13;5009817;28;20451;-69
2021/07/27 02:39:12;;;;;;;19.13;9.88;;;;;;;17.24;82.14;100931.13;5013914;28;20030;-69
2021/07/27 02:41:37;;;;;;;25.13;12.80;;;;;;;17.19;81.76;100934.31;4976617;28;20407;-69
2021/07/27 02:44:03;;;;;;;21.75;11.75;;;;;;;17.15;82.07;100921.81;4996651;28;20045;-69
2021/07/27 02:46:29;;;;;;;28.38;14.13;;;;;;;17.12;82.10;100925.63;5009791;28;20495;-69
2021/07/27 02:48:54;;;;;;;20.13;12.57;;;;;;;17.10;82.25;100928.47;5000323;28;20041;-69
2021/07/27 02:51:20;;;;;;;22.52;13.60;;;;;;;17.13;81.89;100932.50;5011023;28;20033;-69
2021/07/27 02:53:45;;;;;;;37.55;16.55;;;;;;;17.15;81.82;100935.72;4980798;28;20034;-69
2021/07/27 02:56:15;;;;;;;38.38;16.23;;;;;;;17.13;81.95;100935.91;5010005;28;20087;-69
2021/07/27 02:58:40;;;;;;;32.55;15.50;;;;;;;17.02;82.53;100938.28;5011995;28;20025;-69
2021/07/27 03:01:06;;;;;;;22.02;12.63;;;;;;;16.97;82.81;100931.03;4991132;28;20471;-69
2021/07/27 03:03:31;;;;;;;22.85;12.95;;;;;;;16.92;82.90;100934.22;5011221;28;20041;-69
2021/07/27 03:06:01;;;;;;;27.20;12.10;;;;;;;16.91;82.80;100926.53;5010963;28;20435;-69
2021/07/27 03:11:13;;;;;;;35.05;15.48;;;;;;;16.91;82.69;100926.53;4994168;28;20037;-69
2021/07/27 03:13:39;;;;;;;22.23;13.55;;;;;;;16.89;82.84;100928.56;5013597;28;20045;-69
2021/07/27 03:16:05;;;;;;;28.73;14.05;;;;;;;16.86;82.90;100932.38;4989754;28;20044;-69
2021/07/27 03:18:30;;;;;;;23.17;12.25;;;;;;;16.87;82.77;100927.94;5008162;28;20033;-69
2021/07/27 03:20:55;;;;;;;20.00;11.55;;;;;;;16.85;82.87;100930.75;5012437;28;20037;-69
2021/07/27 03:23:27;;;;;;;20.35;12.80;;;;;;;16.88;82.59;100938.22;5008205;28;20164;-69
2021/07/27 03:25:53;;;;;;;23.63;12.25;;;;;;;16.87;82.33;100938.41;5005729;28;20033;-68
2021/07/27 03:28:18;;;;;;;22.20;12.68;;;;;;;16.87;82.41;100939.22;5009689;28;20033;-69
2021/07/27 03:30:44;;;;;;;25.23;12.57;;;;;;;16.88;82.43;100934.81;5015491;28;20049;-69
2021/07/27 03:33:15;;;;;;;21.92;13.57;;;;;;;16.85;82.63;100929.94;4999307;28;20068;-69
2021/07/27 03:35:41;;;;;;;20.65;12.32;;;;;;;16.81;82.33;100934.72;5007253;28;20487;-69
2021/07/27 03:38:07;;;;;;;26.23;13.35;;;;;;;16.86;82.37;100942.84;5014740;28;20033;-70
2021/07/27 03:40:34;;;;;;;37.38;18.05;;;;;;;16.76;82.46;100933.69;5009399;28;20038;-69
2021/07/27 03:43:00;;;;;;;25.20;13.93;;;;;;;16.70;82.98;100938.69;4997960;28;20026;-69
2021/07/27 03:45:25;;;;;;;24.75;14.10;;;;;;;16.67;82.90;100935.66;5009960;28;20112;-68
2021/07/27 03:47:51;;;;;;;31.52;16.65;;;;;;;16.65;83.14;100945.50;5009102;28;20036;-69
2021/07/27 03:50:16;;;;;;;36.72;18.92;;;;;;;16.65;83.01;100950.75;5001586;28;20113;-69
2021/07/27 03:52:42;;;;;;;36.33;17.77;;;;;;;16.59;83.42;100947.09;5013425;28;20045;-69
2021/07/27 03:55:08;;;;;;;29.80;15.80;;;;;;;16.58;83.49;100948.09;4977267;28;20054;-69
2021/07/27 03:57:33;;;;;;;30.20;17.02;;;;;;;16.56;83.58;100950.09;5001086;28;20103;-69
2021/07/27 03:59:59;;;;;;;35.70;16.92;;;;;;;16.61;83.49;100952.13;5012884;28;20500;-69
2021/07/27 04:02:25;;;;;;;31.70;15.57;;;;;;;16.61;83.65;100952.94;5009243;28;20076;-69
2021/07/27 04:04:50;;;;;;;29.75;14.38;;;;;;;16.61;83.53;100952.94;4992824;28;20376;-69
2021/07/27 04:07:16;;;;;;;28.20;16.42;;;;;;;16.64;83.34;100952.56;4994300;28;20037;-69
2021/07/27 04:09:43;;;;;;;25.55;14.88;;;;;;;16.67;83.46;100948.75;5008541;28;20029;-69
2021/07/27 04:12:08;;;;;;;25.55;14.43;;;;;;;16.68;83.30;100955.59;5000936;28;20045;-71
2021/07/27 04:14:35;;;;;;;27.95;15.40;;;;;;;16.72;83.42;100951.59;4994918;28;20099;-73
2021/07/27 04:17:00;;;;;;;30.25;16.42;;;;;;;16.77;83.16;100940.56;5011031;28;20084;-71
2021/07/27 04:19:26;;;;;;;31.92;17.35;;;;;;;16.78;83.13;100952.63;4992251;28;20029;-72
2021/07/27 04:21:51;;;;;;;27.90;16.02;;;;;;;16.77;83.27;100953.66;4991681;28;20025;-71
2021/07/27 04:24:18;;;;;;;26.77;15.65;;;;;;;16.78;83.04;100958.69;4992102;28;20396;-71
2021/07/27 04:26:47;;;;;;;29.85;16.70;;;;;;;16.81;82.89;100953.06;5004004;28;20026;-71
2021/07/27 04:29:16;;;;;;;26.63;14.48;;;;;;;16.86;82.79;100955.16;5012945;28;20038;-71
2021/07/27 04:31:42;;;;;;;26.33;15.07;;;;;;;16.92;82.77;100954.38;4995894;28;20117;-71
2021/07/27 04:34:07;;;;;;;27.98;15.85;;;;;;;16.91;82.61;100950.94;4978267;28;20030;-71
2021/07/27 04:36:33;;;;;;;28.17;16.52;;;;;;;16.92;82.79;100946.50;4998273;28;20068;-72
2021/07/27 04:38:58;;;;;;;23.00;13.45;;;;;;;16.93;82.82;100954.19;4996270;28;20030;-71
2021/07/27 04:41:24;;;;;;;31.75;17.25;;;;;;;16.98;82.38;100948.34;5008462;28;20080;-72
2021/07/27 04:43:49;;;;;;;31.10;17.95;;;;;;;17.03;82.45;100948.56;5016717;28;20037;-71
2021/07/27 04:46:15;;;;;;;30.50;17.15;;;;;;;17.07;82.13;100943.75;5012621;28;20032;-71
2021/07/27 04:48:40;;;;;;;25.00;15.13;;;;;;;17.05;82.43;100940.53;4994979;28;20615;-71
2021/07/27 04:51:06;;;;;;;34.88;18.50;;;;;;;17.12;82.08;100944.78;4981830;28;20030;-71
2021/07/27 04:53:35;;;;;;;34.83;19.67;;;;;;;17.10;82.51;100938.09;4994156;28;20061;-72
2021/07/27 04:56:02;;;;;;;25.45;14.82;;;;;;;17.09;82.69;100947.00;5010604;28;20116;-71
2021/07/27 04:58:28;;;;;;;31.42;17.63;;;;;;;17.07;82.64;100946.38;5013323;28;20092;-71
2021/07/27 05:00:59;;;;;;;27.33;15.00;;;;;;;17.07;82.81;100951.63;5017691;28;20037;-72
2021/07/27 05:03:25;;;;;;;33.72;19.48;;;;;;;17.10;81.98;100945.97;5014720;28;20488;-70
2021/07/27 05:05:53;;;;;;;35.42;19.10;;;;;;;17.04;82.53;100944.13;5014340;28;20061;-71
2021/07/27 05:08:19;;;;;;;30.95;16.80;;;;;;;17.05;82.33;100954.44;4995941;28;20109;-71
2021/07/27 05:10:45;;;;;;;29.05;16.55;;;;;;;17.06;82.56;100955.22;5011128;28;20036;-71
2021/07/27 05:13:11;;;;;;;35.35;16.80;;;;;;;16.97;82.90;100956.38;5012588;28;20688;-72
2021/07/27 05:15:36;;;;;;;24.20;14.75;;;;;;;17.01;82.65;100957.63;4999642;28;20030;-70
2021/07/27 05:18:02;;;;;;;26.83;15.20;;;;;;;17.02;82.47;100949.56;4977936;28;20516;-70
2021/07/27 05:20:27;;;;;;;27.70;13.80;;;;;;;17.05;82.29;100943.94;4997097;28;20026;-71
2021/07/27 05:22:54;;;;;;;27.70;15.73;;;;;;;17.05;82.46;100938.72;5008328;28;20056;-72
2021/07/27 05:25:19;;;;;;;31.05;15.70;;;;;;;17.03;82.67;100937.31;5002266;28;20029;-70
2021/07/27 05:27:48;;;;;;;24.55;13.43;;;;;;;16.99;83.10;100943.91;5006985;28;20443;-71
2021/07/27 05:30:15;;;;;;;28.25;14.50;;;;;;;17.04;83.15;100944.94;4996563;28;20157;-70
2021/07/27 05:32:41;;;;;;;26.83;14.57;;;;;;;17.16;82.27;100939.97;4992963;28;20025;-71
2021/07/27 05:35:09;;;;;;;24.65;14.52;;;;;;;17.04;82.49;100941.50;4998185;28;20044;-71
2021/07/27 05:37:34;;;;;;;29.60;15.15;;;;;;;17.03;82.65;100939.91;5010545;28;20072;-70
2021/07/27 05:40:00;;;;;;;26.20;13.27;;;;;;;17.01;83.08;100944.50;4990703;28;20038;-70
2021/07/27 05:42:25;;;;;;;25.58;14.38;;;;;;;16.98;83.00;100943.09;5009454;28;20033;-70
2021/07/27 05:44:51;;;;;;;22.00;13.15;;;;;;;17.01;82.68;100947.97;5011567;28;20033;-70
2021/07/27 05:47:16;;;;;;;24.98;13.82;;;;;;;17.11;82.77;100939.75;5012548;28;20033;-70
2021/07/27 05:49:42;;;;;;;24.23;14.20;;;;;;;17.14;82.41;100944.59;5007724;28;20577;-71
2021/07/27 05:52:11;;;;;;;27.00;14.88;;;;;;;17.23;82.32;100946.00;5008709;28;20129;-71
2021/07/27 05:54:38;;;;;;;27.33;15.00;;;;;;;17.20;82.37;100940.38;4994027;28;20026;-70
2021/07/27 05:57:03;;;;;;;28.67;12.60;;;;;;;17.26;82.33;100945.63;4996811;28;20073;-70
2021/07/27 05:59:29;;;;;;;29.35;14.75;;;;;;;17.44;81.88;100941.66;5012662;28;20041;-71
2021/07/27 06:01:55;;;;;;;28.38;14.05;;;;;;;17.50;81.78;100941.69;5005918;28;20026;-72
2021/07/27 06:04:21;;;;;;;26.38;13.63;;;;;;;17.65;80.65;100938.88;4995969;28;20036;-70
2021/07/27 06:06:47;;;;;;;30.05;14.15;;;;;;;17.64;80.88;100931.22;5011022;28;20546;-70
2021/07/27 06:09:14;;;;;;;25.02;13.55;;;;;;;17.66;81.31;100937.06;5007948;28;20038;-70
2021/07/27 06:11:39;;;;;;;27.95;14.45;;;;;;;17.78;80.83;100921.53;5012303;28;20113;-71
2021/07/27 06:14:06;;;;;;;27.38;15.15;;;;;;;17.84;80.16;100931.25;5010249;28;20042;-71
2021/07/27 06:16:37;;;;;;;24.70;15.02;;;;;;;17.84;79.88;100929.47;5010704;28;20040;-72
2021/07/27 06:19:03;;;;;;;23.30;14.48;;;;;;;17.79;79.94;100931.03;4991627;28;20092;-70
2021/07/27 06:21:29;;;;;;;27.67;14.05;;;;;;;17.88;79.74;100929.88;5012190;28;20400;-71
2021/07/27 06:23:54;;;;;;;28.65;14.63;;;;;;;18.02;79.71;100934.09;5008753;28;20021;-70
2021/07/27 06:26:20;;;;;;;27.27;14.43;;;;;;;18.10;79.25;100925.22;5001892;28;20034;-70
2021/07/27 06:28:45;;;;;;;22.60;12.68;;;;;;;18.18;78.41;100927.66;5005661;28;20610;-71
2021/07/27 06:31:11;;;;;;;20.98;11.82;;;;;;;18.19;78.79;100929.25;5010947;28;20038;-70
2021/07/27 06:33:41;;;;;;;19.30;11.88;;;;;;;18.20;78.22;100930.06;5007414;28;20022;-71
2021/07/27 06:36:07;;;;;;;20.45;12.75;;;;;;;18.11;78.43;100937.34;4995499;28;20037;-70
2021/07/27 06:38:34;;;;;;;23.17;12.65;;;;;;;18.04;78.25;100942.56;4996498;28;20404;-70
2021/07/27 06:41:01;;;;;;;18.98;11.45;;;;;;;17.97;78.71;100941.78;5009977;28;20045;-70
2021/07/27 06:43:27;;;;;;;30.35;11.45;;;;;;;17.96;78.55;100934.91;5010071;28;20119;-70
2021/07/27 06:45:53;;;;;;;16.73;10.93;;;;;;;17.90;79.22;100936.53;5010452;28;20665;-71
2021/07/27 06:48:19;;;;;;;16.40;10.00;;;;;;;17.97;78.61;100935.69;5013817;28;20037;-73
2021/07/27 06:50:45;;;;;;;17.17;11.18;;;;;;;18.15;77.91;100938.53;5010208;28;20444;-71
2021/07/27 06:53:10;;;;;;;15.20;10.23;;;;;;;18.33;77.93;100932.69;5014083;28;20045;-70
2021/07/27 06:55:35;;;;;;;18.88;10.25;;;;;;;18.59;76.20;100933.63;5011456;28;20030;-71
2021/07/27 06:58:01;;;;;;;14.55;8.75;;;;;;;18.63;75.98;100940.09;5001133;28;20714;-71
2021/07/27 07:00:26;;;;;;;17.23;11.35;;;;;;;18.76;75.88;100945.31;5011108;28;20022;-70
2021/07/27 07:02:52;;;;;;;17.90;9.50;;;;;;;18.83;75.70;100945.31;5002882;28;20033;-70
2021/07/27 07:05:17;;;;;;;12.35;8.45;;;;;;;18.90;74.83;100945.31;5019217;28;20029;-71
2021/07/27 07:07:43;;;;;;;17.75;9.25;;;;;;;19.10;74.53;100943.41;5014272;28;20037;-71
2021/07/27 07:10:09;;;;;;;17.85;9.70;;;;;;;19.23;74.51;100940.72;5014144;28;20076;-70
2021/07/27 07:12:34;;;;;;;15.23;8.15;;;;;;;19.37;72.77;100949.34;5019841;28;20514;-71
2021/07/27 07:15:00;;;;;;;13.10;7.68;;;;;;;19.59;71.59;100938.47;5009892;28;20030;-71
2021/07/27 07:17:25;;;;;;;12.70;7.55;;;;;;;19.56;72.46;100946.81;5008377;28;20546;-70
2021/07/27 07:19:51;;;;;;;9.52;7.13;;;;;;;19.60;71.22;100940.91;5017328;28;20025;-72
2021/07/27 07:22:18;;;;;;;11.93;6.80;;;;;;;19.62;70.82;100944.13;5014901;28;20512;-71
2021/07/27 07:24:44;;;;;;;13.80;7.60;;;;;;;19.68;73.11;100952.19;5012286;28;20061;-71
2021/07/27 07:27:10;;;;;;;20.17;7.25;;;;;;;19.73;71.36;100947.13;5008680;28;20605;-70
2021/07/27 07:29:36;;;;;;;12.52;8.23;;;;;;;19.65;70.71;100945.53;5012965;28;20062;-70
2021/07/27 07:32:01;;;;;;;15.90;7.63;;;;;;;19.65;71.63;100954.22;5012457;28;20037;-71
2021/07/27 07:34:27;;;;;;;13.68;7.95;;;;;;;19.70;72.55;100950.16;5016334;28;20459;-71
2021/07/27 07:36:53;;;;;;;14.98;7.70;;;;;;;19.78;71.79;100945.47;5014810;28;20631;-73
2021/07/27 07:39:19;;;;;;;14.25;7.47;;;;;;;19.76;70.17;100944.06;5013787;28;20491;-70
2021/07/27 07:41:44;;;;;;;13.85;8.10;;;;;;;19.73;70.55;100947.94;5016031;28;20025;-72
2021/07/27 07:44:10;;;;;;;13.00;8.75;;;;;;;19.75;71.65;100950.34;4994031;28;20476;-70
2021/07/27 07:46:35;;;;;;;16.27;7.68;;;;;;;19.83;69.78;100950.91;4992940;28;20599;-71
2021/07/27 07:49:01;;;;;;;14.88;7.63;;;;;;;20.17;68.89;100945.38;5014016;28;20030;-70
2021/07/27 07:51:26;;;;;;;14.52;8.45;;;;;;;20.71;68.29;100941.22;4995109;28;20037;-70
2021/07/27 07:53:52;;;;;;;13.40;7.78;;;;;;;21.00;66.74;100934.41;5009995;28;20076;-70
2021/07/27 07:56:17;;;;;;;16.48;8.38;;;;;;;21.67;63.18;100938.00;4987602;28;20034;-70
2021/07/27 07:58:44;;;;;;;14.30;7.93;;;;;;;22.35;62.80;100929.56;5011739;28;20030;-70
2021/07/27 08:01:10;;;;;;;13.40;7.30;;;;;;;23.05;61.46;100927.03;5011084;28;20053;-71
2021/07/27 08:03:36;;;;;;;12.50;7.35;;;;;;;23.35;58.62;100918.03;5008723;28;20056;-71
2021/07/27 08:06:01;;;;;;;10.77;7.40;;;;;;;23.28;58.39;100919.00;5001311;28;20058;-70
2021/07/27 08:08:27;;;;;;;13.00;7.55;;;;;;;23.10;58.53;100921.84;5015400;28;20065;-70
2021/07/27 08:10:53;;;;;;;14.48;8.30;;;;;;;22.93;59.15;100919.09;5011955;28;20014;-71
2021/07/27 08:13:19;;;;;;;16.10;7.93;;;;;;;23.09;59.22;100925.50;5010992;28;20029;-72
2021/07/27 08:15:45;;;;;;;10.15;6.95;;;;;;;23.49;59.85;100922.78;5018972;28;20400;-71
2021/07/27 08:18:11;;;;;;;15.45;8.75;;;;;;;23.54;56.47;100921.28;5005210;28;20077;-71
2021/07/27 08:20:37;;;;;;;12.35;7.95;;;;;;;23.26;57.55;100921.09;5010138;28;20112;-71
2021/07/27 08:23:04;;;;;;;13.90;8.13;;;;;;;23.29;58.18;100914.50;5018737;28;20589;-73
2021/07/27 08:25:30;;;;;;;17.50;8.05;;;;;;;23.28;59.44;100926.09;5017644;28;20564;-71
2021/07/27 08:27:56;;;;;;;11.52;8.27;;;;;;;23.02;58.83;100914.22;5009015;28;20053;-71
2021/07/27 08:30:23;;;;;;;15.90;8.88;;;;;;;23.21;59.81;100915.69;5011720;28;20120;-70
2021/07/27 08:32:50;;;;;;;11.30;7.85;;;;;;;23.55;58.67;100909.66;5018289;28;20038;-69
2021/07/27 08:35:18;;;;;;;15.75;7.88;;;;;;;23.64;59.03;100909.00;5015120;28;20434;-70
2021/07/27 08:37:43;;;;;;;16.40;6.85;;;;;;;23.79;59.06;100908.50;5013579;28;20029;-71
2021/07/27 08:40:10;;;;;;;15.63;8.10;;;;;;;24.24;57.30;100896.94;5010685;28;20389;-73
2021/07/27 08:42:38;;;;;;;14.40;8.27;;;;;;;24.29;56.54;100889.03;5019557;28;20040;-72
2021/07/27 08:45:04;;;;;;;14.82;7.70;;;;;;;24.89;55.91;100897.19;4995733;28;20904;-71
2021/07/27 08:47:33;;;;;;;11.07;6.75;;;;;;;25.48;55.70;100887.69;5018254;28;20468;-71
2021/07/27 08:50:00;;;;;;;13.43;8.20;;;;;;;25.71;54.26;100890.00;5009827;28;20030;-71
2021/07/27 08:52:26;;;;;;;11.15;8.00;;;;;;;25.96;53.32;100883.28;5009125;28;20024;-72
2021/07/27 08:54:53;;;;;;;10.77;7.93;;;;;;;26.04;51.25;100882.78;5014451;28;20033;-70
2021/07/27 08:57:18;;;;;;;8.90;7.18;;;;;;;26.44;51.39;100875.25;5015857;28;20030;-70
2021/07/27 08:59:44;;;;;;;9.80;6.78;;;;;;;26.66;50.59;100878.56;4983366;28;20526;-71
2021/07/27 09:02:09;;;;;;;11.52;7.05;;;;;;;26.79;50.36;100882.59;5008019;28;20034;-71
2021/07/27 09:04:35;;;;;;;10.13;7.10;;;;;;;26.35;52.36;100885.59;5013121;28;20021;-71
2021/07/27 09:07:05;;;;;;;10.15;7.72;;;;;;;26.06;51.80;100875.34;4993654;28;20637;-70
2021/07/27 09:09:35;;;;;;;15.55;8.35;;;;;;;25.84;52.79;100891.41;5000622;28;20033;-71
2021/07/27 09:12:03;;;;;;;16.02;7.18;;;;;;;25.43;52.97;100886.59;4997321;28;20535;-70
2021/07/27 09:14:30;;;;;;;10.68;7.43;;;;;;;24.99;53.77;100893.84;5007097;28;20065;-72
2021/07/27 09:16:57;;;;;;;9.52;7.10;;;;;;;25.02;53.63;100888.06;4990956;28;20021;-70
2021/07/27 09:19:23;;;;;;;11.82;7.97;;;;;;;25.11;53.89;100885.75;5016707;28;20029;-71
2021/07/27 09:21:48;;;;;;;11.10;7.22;;;;;;;25.38;54.03;100883.09;5007766;28;20037;-71
2021/07/27 09:24:20;;;;;;;10.57;6.93;;;;;;;24.92;54.70;100883.47;5007367;28;20022;-71
2021/07/27 09:26:59;;;;;;;8.68;6.75;;;;;;;25.48;53.96;100877.06;5009348;28;20072;-71
2021/07/27 09:29:27;;;;;;;15.50;7.40;;;;;;;25.74;53.86;100867.44;5016660;28;20073;-72
2021/07/27 09:31:54;;;;;;;13.07;7.32;;;;;;;26.05;53.34;100876.44;5014324;28;20416;-71
2021/07/27 09:34:23;;;;;;;11.13;7.30;;;;;;;26.15;52.76;100879.13;5007585;28;20049;-70
2021/07/27 09:37:05;;;;;;;9.68;7.07;;;;;;;26.09;51.36;100874.84;4995401;28;20080;-72
2021/07/27 09:39:32;;;;;;;11.60;7.38;;;;;;;25.97;51.44;100868.94;4986834;28;20100;-71
2021/07/27 09:42:03;;;;;;;13.45;7.22;;;;;;;25.47;53.01;100867.50;5009203;28;20041;-71
2021/07/27 09:44:30;;;;;;;9.65;7.70;;;;;;;25.12;53.01;100868.78;5007765;28;20113;-71
2021/07/27 09:46:58;;;;;;;12.20;8.05;;;;;;;24.92;54.41;100872.84;5007312;28;20659;-71
2021/07/27 09:49:24;;;;;;;9.52;7.05;;;;;;;24.75;56.05;100883.53;5009549;28;20404;-71
2021/07/27 09:51:50;;;;;;;13.35;7.45;;;;;;;24.66;55.49;100880.53;4991941;28;20036;-71
2021/07/27 09:54:18;;;;;;;10.40;7.80;;;;;;;25.22;54.29;100875.00;5009163;28;20018;-71
2021/07/27 09:56:50;;;;;;;15.00;7.63;;;;;;;25.50;52.67;100881.06;5012121;28;20065;-70
2021/07/27 09:59:17;;;;;;;17.13;7.55;;;;;;;25.91;51.59;100873.38;5008620;28;20594;-70
2021/07/27 10:01:56;;;;;;;13.90;7.50;;;;;;;25.37;53.27;100882.31;4994293;28;20038;-72
2021/07/27 10:04:24;;;;;;;12.60;7.00;;;;;;;25.56;51.63;100877.41;5007153;28;20041;-71
2021/07/27 10:06:51;;;;;;;10.00;6.97;;;;;;;25.91;52.79;100875.25;5009579;28;20500;-70
2021/07/27 10:09:27;;;;;;;10.02;7.25;;;;;;;26.14;53.07;100880.16;5007399;28;20037;-73
2021/07/27 10:12:03;;;;;;;10.07;6.88;;;;;;;26.09;51.93;100887.31;5017914;23;20072;-74
2021/07/27 10:14:37;;;;;;;11.27;7.30;;;;;;;25.71;52.22;100884.69;5018580;28;20573;-76
2021/07/27 10:17:03;;;;;;;10.20;6.72;;;;;;;25.21;53.48;100891.16;5045226;28;20583;-73
2021/07/27 10:19:38;;;;;;;14.55;7.53;;;;;;;24.79;58.69;100902.38;5036257;28;20076;-72
2021/07/27 10:22:09;;;;;;;12.57;7.85;;;;;;;24.29;60.23;100904.94;5033018;28;20072;-74
2021/07/27 10:24:46;;;;;;;17.05;8.13;;;;;;;23.86;62.13;100903.81;5029590;28;20487;-73
2021/07/27 10:27:18;;;;;;;13.85;8.40;;;;;;;23.83;64.14;100903.50;5033905;28;20407;-73
2021/07/27 10:29:44;;;;;;;15.57;8.20;;;;;;;24.03;64.86;100905.63;5031375;28;20029;-74
2021/07/27 10:32:16;;;;;;;11.02;8.80;;;;;;;24.07;63.11;100912.03;5014568;28;20561;-73
2021/07/27 10:34:44;;;;;;;17.48;8.77;;;;;;;24.02;63.38;100915.44;5037994;28;20037;-73
2021/07/27 10:37:12;;;;;;;13.73;9.32;;;;;;;23.85;62.63;100910.16;5031937;28;20029;-73
2021/07/27 10:39:52;;;;;;;14.20;8.95;;;;;;;23.94;62.13;100918.50;5036075;28;20391;-72
2021/07/27 10:42:18;;;;;;;15.90;9.05;;;;;;;23.97;63.64;100914.56;5032341;28;20060;-73
2021/07/27 10:44:45;;;;;;;14.07;8.40;;;;;;;23.68;63.01;100910.13;5040713;28;20059;-72
2021/07/27 10:47:24;;;;;;;12.85;7.90;;;;;;;23.52;61.37;100911.72;5034004;28;20798;-72
2021/07/27 10:50:05;;;;;;;13.45;8.52;;;;;;;23.62;61.72;100918.22;5031211;28;20030;-73
2021/07/27 10:52:31;;;;;;;14.10;8.65;;;;;;;23.66;62.63;100916.72;5028618;28;20547;-73
2021/07/27 10:54:58;;;;;;;11.20;8.05;;;;;;;23.76;62.27;100918.72;5036285;28;20240;-73
2021/07/27 10:57:52;;;;;;;14.23;8.00;;;;;;;23.72;61.63;100918.41;5037791;28;20099;-73
2021/07/27 11:00:29;;;;;;;11.48;7.65;;;;;;;24.01;59.78;100928.91;5029347;28;20045;-74
2021/07/27 11:02:56;;;;;;;11.90;8.02;;;;;;;24.34;58.83;100922.75;5030003;28;20037;-73
2021/07/27 11:05:29;;;;;;;14.15;7.65;;;;;;;24.73;60.73;100922.72;5028287;28;20310;-73
2021/07/27 11:07:55;;;;;;;17.15;7.53;;;;;;;25.04;57.61;100923.88;5029725;28;20405;-72
2021/07/27 11:10:22;;;;;;;12.13;8.02;;;;;;;24.87;55.95;100915.22;5028540;28;20028;-72
2021/07/27 11:12:48;;;;;;;11.48;7.68;;;;;;;24.93;56.48;100913.41;5027032;22;20536;-68
2021/07/27 11:15:14;;;;;;;11.40;7.57;;;;;;;24.90;56.49;100914.69;4995484;28;20044;-68
2021/07/27 11:17:47;;;;;;;12.00;7.15;;;;;;;24.82;54.94;100901.91;5003523;28;20029;-69
2021/07/27 11:20:22;;;;;;;26.92;7.22;;;;;;;24.96;56.39;100907.59;5002364;28;20128;-68
2021/07/27 11:22:53;;;;;;;16.02;8.32;;;;;;;25.04;55.37;100899.22;5028545;28;20092;-68
2021/07/27 11:25:27;;;;;;;10.60;7.35;;;;;;;25.28;54.38;100902.41;5030733;22;20064;-76
2021/07/27 11:27:53;;;;;;;14.00;8.18;;;;;;;25.18;55.87;100902.25;4974569;28;20053;-73
2021/07/27 11:30:33;;;;;;;10.70;7.10;;;;;;;25.16;56.39;100896.41;4991819;28;20487;-73
2021/07/27 11:33:08;;;;;;;14.05;7.05;;;;;;;25.42;54.90;100902.78;4990581;28;20134;-74
2021/07/27 11:35:41;;;;;;;10.40;6.80;;;;;;;25.38;55.85;100905.13;4996568;28;20045;-74
2021/07/27 11:38:08;;;;;;;10.85;6.88;;;;;;;25.51;54.55;100898.59;4982032;28;20113;-73